sensor_id;sensor_type;location;lat;lon;timestamp;P1;durP1;ratioP1;P2;durP2;ratioP2
44116;SDS011;29781;49.480;8.512;2022-10-17T00:01:05;7.13;;;5.00;;
44116;SDS011;29781;49.480;8.512;2022-10-17T00:03:31;6.82;;;4.35;;
44116;SDS011;29781;49.480;8.512;2022-10-17T00:05:57;9.23;;;5.75;;
44116;SDS011;29781;49.480;8.512;2022-10-17T00:08:23;7.50;;;4.57;;
44116;SDS011;29781;49.480;8.512;2022-10-17T00:10:55;8.43;;;4.50;;
44116;SDS011;29781;49.480;8.512;2022-10-17T00:13:23;6.60;;;4.70;;
44116;SDS011;29781;49.480;8.512;2022-10-17T00:15:49;4.82;;;4.22;;
44116;SDS011;29781;49.480;8.512;2022-10-17T00:18:15;5.40;;;4.68;;
44116;SDS011;29781;49.480;8.512;2022-10-17T00:20:40;4.63;;;4.22;;
44116;SDS011;29781;49.480;8.512;2022-10-17T00:23:06;11.45;;;5.05;;
44116;SDS011;29781;49.480;8.512;2022-10-17T00:25:32;5.80;;;5.28;;
44116;SDS011;29781;49.480;8.512;2022-10-17T00:27:57;5.45;;;4.68;;
44116;SDS011;29781;49.480;8.512;2022-10-17T00:30:23;9.88;;;4.95;;
44116;SDS011;29781;49.480;8.512;2022-10-17T00:32:49;9.35;;;4.97;;
44116;SDS011;29781;49.480;8.512;2022-10-17T00:35:14;10.43;;;4.80;;
44116;SDS011;29781;49.480;8.512;2022-10-17T00:37:40;5.43;;;4.88;;
44116;SDS011;29781;49.480;8.512;2022-10-17T00:40:06;7.38;;;4.88;;
44116;SDS011;29781;49.480;8.512;2022-10-17T00:42:32;6.88;;;4.53;;
44116;SDS011;29781;49.480;8.512;2022-10-17T00:45:00;9.70;;;5.40;;
44116;SDS011;29781;49.480;8.512;2022-10-17T00:47:48;8.75;;;5.18;;
44116;SDS011;29781;49.480;8.512;2022-10-17T00:50:19;9.10;;;4.88;;
44116;SDS011;29781;49.480;8.512;2022-10-17T00:52:46;6.72;;;4.72;;
44116;SDS011;29781;49.480;8.512;2022-10-17T00:55:16;7.75;;;5.05;;
44116;SDS011;29781;49.480;8.512;2022-10-17T00:57:47;5.97;;;5.32;;
44116;SDS011;29781;49.480;8.512;2022-10-17T01:00:15;9.88;;;5.97;;
44116;SDS011;29781;49.480;8.512;2022-10-17T01:02:41;8.55;;;6.68;;
44116;SDS011;29781;49.480;8.512;2022-10-17T01:05:07;7.85;;;6.05;;
44116;SDS011;29781;49.480;8.512;2022-10-17T01:07:34;9.98;;;4.90;;
44116;SDS011;29781;49.480;8.512;2022-10-17T01:10:02;10.40;;;5.43;;
44116;SDS011;29781;49.480;8.512;2022-10-17T01:12:31;5.20;;;4.47;;
44116;SDS011;29781;49.480;8.512;2022-10-17T01:20:50;7.75;;;4.65;;
44116;SDS011;29781;49.480;8.512;2022-10-17T01:23:39;8.73;;;5.72;;
44116;SDS011;29781;49.480;8.512;2022-10-17T01:31:47;11.13;;;6.75;;
44116;SDS011;29781;49.480;8.512;2022-10-17T01:34:30;8.35;;;6.95;;
44116;SDS011;29781;49.480;8.512;2022-10-17T01:39:27;10.88;;;6.53;;
44116;SDS011;29781;49.480;8.512;2022-10-17T01:45:02;11.02;;;6.40;;
44116;SDS011;29781;49.480;8.512;2022-10-17T01:47:42;8.95;;;5.32;;
44116;SDS011;29781;49.480;8.512;2022-10-17T01:50:19;8.75;;;5.80;;
44116;SDS011;29781;49.480;8.512;2022-10-17T01:52:53;12.40;;;5.63;;
44116;SDS011;29781;49.480;8.512;2022-10-17T01:55:27;8.82;;;5.25;;
44116;SDS011;29781;49.480;8.512;2022-10-17T01:58:00;9.50;;;5.85;;
44116;SDS011;29781;49.480;8.512;2022-10-17T02:00:36;9.35;;;4.30;;
44116;SDS011;29781;49.480;8.512;2022-10-17T02:03:06;5.55;;;3.88;;
44116;SDS011;29781;49.480;8.512;2022-10-17T02:05:35;4.50;;;4.10;;
44116;SDS011;29781;49.480;8.512;2022-10-17T02:08:03;5.43;;;4.85;;
44116;SDS011;29781;49.480;8.512;2022-10-17T02:10:31;7.50;;;5.35;;
44116;SDS011;29781;49.480;8.512;2022-10-17T02:19:00;6.70;;;3.42;;
44116;SDS011;29781;49.480;8.512;2022-10-17T02:21:38;9.65;;;3.65;;
44116;SDS011;29781;49.480;8.512;2022-10-17T02:24:19;4.70;;;3.45;;
44116;SDS011;29781;49.480;8.512;2022-10-17T02:27:02;5.32;;;3.10;;
44116;SDS011;29781;49.480;8.512;2022-10-17T02:29:37;7.68;;;3.25;;
44116;SDS011;29781;49.480;8.512;2022-10-17T02:32:15;4.95;;;3.00;;
44116;SDS011;29781;49.480;8.512;2022-10-17T02:34:49;7.05;;;3.10;;
44116;SDS011;29781;49.480;8.512;2022-10-17T02:37:26;11.25;;;3.58;;
44116;SDS011;29781;49.480;8.512;2022-10-17T02:39:53;6.35;;;3.10;;
44116;SDS011;29781;49.480;8.512;2022-10-17T02:42:22;8.38;;;3.33;;
44116;SDS011;29781;49.480;8.512;2022-10-17T02:44:49;7.88;;;3.97;;
44116;SDS011;29781;49.480;8.512;2022-10-17T02:47:20;4.45;;;4.05;;
44116;SDS011;29781;49.480;8.512;2022-10-17T02:49:51;6.90;;;3.67;;
44116;SDS011;29781;49.480;8.512;2022-10-17T02:52:27;5.60;;;3.53;;
44116;SDS011;29781;49.480;8.512;2022-10-17T02:57:29;4.68;;;3.05;;
44116;SDS011;29781;49.480;8.512;2022-10-17T03:00:10;5.95;;;2.75;;
44116;SDS011;29781;49.480;8.512;2022-10-17T03:02:44;6.95;;;3.25;;
44116;SDS011;29781;49.480;8.512;2022-10-17T03:05:16;8.35;;;3.30;;
44116;SDS011;29781;49.480;8.512;2022-10-17T03:07:50;5.22;;;2.75;;
44116;SDS011;29781;49.480;8.512;2022-10-17T03:10:16;7.75;;;3.20;;
44116;SDS011;29781;49.480;8.512;2022-10-17T03:12:42;4.22;;;3.05;;
44116;SDS011;29781;49.480;8.512;2022-10-17T03:15:08;11.55;;;2.95;;
44116;SDS011;29781;49.480;8.512;2022-10-17T03:17:34;4.95;;;3.15;;
44116;SDS011;29781;49.480;8.512;2022-10-17T03:20:00;4.20;;;3.10;;
44116;SDS011;29781;49.480;8.512;2022-10-17T03:22:26;6.60;;;3.15;;
44116;SDS011;29781;49.480;8.512;2022-10-17T03:24:51;12.15;;;2.80;;
44116;SDS011;29781;49.480;8.512;2022-10-17T03:27:17;5.70;;;2.70;;
44116;SDS011;29781;49.480;8.512;2022-10-17T03:29:43;3.85;;;2.78;;
44116;SDS011;29781;49.480;8.512;2022-10-17T03:32:08;7.72;;;3.40;;
44116;SDS011;29781;49.480;8.512;2022-10-17T03:34:34;8.80;;;3.20;;
44116;SDS011;29781;49.480;8.512;2022-10-17T03:37:00;6.28;;;2.70;;
44116;SDS011;29781;49.480;8.512;2022-10-17T03:39:25;5.07;;;3.45;;
44116;SDS011;29781;49.480;8.512;2022-10-17T03:41:51;8.45;;;3.00;;
44116;SDS011;29781;49.480;8.512;2022-10-17T03:44:16;3.20;;;2.85;;
44116;SDS011;29781;49.480;8.512;2022-10-17T03:46:42;7.35;;;2.92;;
44116;SDS011;29781;49.480;8.512;2022-10-17T03:49:08;5.30;;;3.03;;
44116;SDS011;29781;49.480;8.512;2022-10-17T03:51:35;4.03;;;2.90;;
44116;SDS011;29781;49.480;8.512;2022-10-17T03:54:01;6.50;;;3.22;;
44116;SDS011;29781;49.480;8.512;2022-10-17T03:56:26;6.78;;;3.00;;
44116;SDS011;29781;49.480;8.512;2022-10-17T03:58:52;6.32;;;3.05;;
44116;SDS011;29781;49.480;8.512;2022-10-17T04:01:21;6.75;;;3.03;;
44116;SDS011;29781;49.480;8.512;2022-10-17T04:03:47;7.95;;;2.92;;
44116;SDS011;29781;49.480;8.512;2022-10-17T04:06:17;6.47;;;3.58;;
44116;SDS011;29781;49.480;8.512;2022-10-17T04:08:43;7.90;;;3.33;;
44116;SDS011;29781;49.480;8.512;2022-10-17T04:11:09;6.55;;;3.13;;
44116;SDS011;29781;49.480;8.512;2022-10-17T04:13:38;5.97;;;3.10;;
44116;SDS011;29781;49.480;8.512;2022-10-17T04:16:04;4.30;;;3.20;;
44116;SDS011;29781;49.480;8.512;2022-10-17T04:18:31;6.07;;;3.17;;
44116;SDS011;29781;49.480;8.512;2022-10-17T04:21:00;4.88;;;3.08;;
44116;SDS011;29781;49.480;8.512;2022-10-17T04:23:27;6.80;;;3.03;;
44116;SDS011;29781;49.480;8.512;2022-10-17T04:25:59;4.78;;;2.85;;
44116;SDS011;29781;49.480;8.512;2022-10-17T04:28:25;3.75;;;3.38;;
44116;SDS011;29781;49.480;8.512;2022-10-17T04:30:58;6.55;;;3.45;;
44116;SDS011;29781;49.480;8.512;2022-10-17T04:33:25;5.20;;;2.95;;
44116;SDS011;29781;49.480;8.512;2022-10-17T04:36:00;7.82;;;3.22;;
44116;SDS011;29781;49.480;8.512;2022-10-17T04:38:28;10.57;;;3.63;;
44116;SDS011;29781;49.480;8.512;2022-10-17T04:40:57;6.97;;;3.63;;
44116;SDS011;29781;49.480;8.512;2022-10-17T04:43:27;5.72;;;3.47;;
44116;SDS011;29781;49.480;8.512;2022-10-17T04:45:53;6.60;;;3.65;;
44116;SDS011;29781;49.480;8.512;2022-10-17T04:48:18;5.68;;;3.60;;
44116;SDS011;29781;49.480;8.512;2022-10-17T04:50:54;4.15;;;3.20;;
44116;SDS011;29781;49.480;8.512;2022-10-17T04:53:21;9.93;;;3.67;;
44116;SDS011;29781;49.480;8.512;2022-10-17T04:55:47;12.50;;;4.07;;
44116;SDS011;29781;49.480;8.512;2022-10-17T04:58:13;6.57;;;3.63;;
44116;SDS011;29781;49.480;8.512;2022-10-17T05:00:38;9.05;;;3.53;;
44116;SDS011;29781;49.480;8.512;2022-10-17T05:03:04;5.10;;;3.90;;
44116;SDS011;29781;49.480;8.512;2022-10-17T05:05:30;7.72;;;3.85;;
44116;SDS011;29781;49.480;8.512;2022-10-17T05:07:56;6.22;;;3.33;;
44116;SDS011;29781;49.480;8.512;2022-10-17T05:10:22;5.97;;;3.90;;
44116;SDS011;29781;49.480;8.512;2022-10-17T05:12:48;11.00;;;3.63;;
44116;SDS011;29781;49.480;8.512;2022-10-17T05:15:14;9.55;;;4.18;;
44116;SDS011;29781;49.480;8.512;2022-10-17T05:17:40;9.35;;;6.82;;
44116;SDS011;29781;49.480;8.512;2022-10-17T05:20:06;12.00;;;8.15;;
44116;SDS011;29781;49.480;8.512;2022-10-17T05:22:32;15.48;;;9.63;;
44116;SDS011;29781;49.480;8.512;2022-10-17T05:24:58;17.98;;;11.23;;
44116;SDS011;29781;49.480;8.512;2022-10-17T05:27:24;13.05;;;10.55;;
44116;SDS011;29781;49.480;8.512;2022-10-17T05:29:50;12.48;;;8.40;;
44116;SDS011;29781;49.480;8.512;2022-10-17T05:32:15;13.05;;;9.18;;
44116;SDS011;29781;49.480;8.512;2022-10-17T05:34:41;14.85;;;9.50;;
44116;SDS011;29781;49.480;8.512;2022-10-17T05:37:07;14.20;;;9.52;;
44116;SDS011;29781;49.480;8.512;2022-10-17T05:39:33;13.65;;;9.20;;
44116;SDS011;29781;49.480;8.512;2022-10-17T05:41:58;17.08;;;10.25;;
44116;SDS011;29781;49.480;8.512;2022-10-17T05:44:24;14.68;;;9.77;;
44116;SDS011;29781;49.480;8.512;2022-10-17T05:46:49;18.25;;;8.43;;
44116;SDS011;29781;49.480;8.512;2022-10-17T05:49:15;17.13;;;6.95;;
44116;SDS011;29781;49.480;8.512;2022-10-17T05:51:41;13.30;;;6.07;;
44116;SDS011;29781;49.480;8.512;2022-10-17T05:54:07;10.85;;;6.18;;
44116;SDS011;29781;49.480;8.512;2022-10-17T05:56:33;9.65;;;5.97;;
44116;SDS011;29781;49.480;8.512;2022-10-17T05:58:59;7.88;;;6.25;;
44116;SDS011;29781;49.480;8.512;2022-10-17T06:01:25;12.15;;;6.28;;
44116;SDS011;29781;49.480;8.512;2022-10-17T06:03:50;7.57;;;6.43;;
44116;SDS011;29781;49.480;8.512;2022-10-17T06:06:16;12.32;;;7.72;;
44116;SDS011;29781;49.480;8.512;2022-10-17T06:08:42;9.88;;;7.10;;
44116;SDS011;29781;49.480;8.512;2022-10-17T06:11:09;13.57;;;9.60;;
44116;SDS011;29781;49.480;8.512;2022-10-17T06:13:35;18.70;;;11.80;;
44116;SDS011;29781;49.480;8.512;2022-10-17T06:16:01;14.43;;;11.07;;
44116;SDS011;29781;49.480;8.512;2022-10-17T06:18:27;15.43;;;11.13;;
44116;SDS011;29781;49.480;8.512;2022-10-17T06:20:53;12.02;;;8.75;;
44116;SDS011;29781;49.480;8.512;2022-10-17T06:23:18;14.25;;;7.95;;
44116;SDS011;29781;49.480;8.512;2022-10-17T06:25:44;14.18;;;7.07;;
44116;SDS011;29781;49.480;8.512;2022-10-17T06:28:10;13.00;;;7.15;;
44116;SDS011;29781;49.480;8.512;2022-10-17T06:30:37;10.07;;;6.45;;
44116;SDS011;29781;49.480;8.512;2022-10-17T06:33:04;8.60;;;5.60;;
44116;SDS011;29781;49.480;8.512;2022-10-17T06:35:30;10.02;;;5.95;;
44116;SDS011;29781;49.480;8.512;2022-10-17T06:37:55;13.15;;;6.03;;
44116;SDS011;29781;49.480;8.512;2022-10-17T06:40:21;13.75;;;6.80;;
44116;SDS011;29781;49.480;8.512;2022-10-17T06:42:46;12.95;;;5.78;;
44116;SDS011;29781;49.480;8.512;2022-10-17T06:45:12;13.35;;;6.80;;
44116;SDS011;29781;49.480;8.512;2022-10-17T06:47:38;11.82;;;6.45;;
44116;SDS011;29781;49.480;8.512;2022-10-17T06:50:04;12.45;;;5.85;;
44116;SDS011;29781;49.480;8.512;2022-10-17T06:52:30;8.23;;;5.38;;
44116;SDS011;29781;49.480;8.512;2022-10-17T06:54:56;15.18;;;5.78;;
44116;SDS011;29781;49.480;8.512;2022-10-17T06:57:21;9.80;;;5.43;;
44116;SDS011;29781;49.480;8.512;2022-10-17T06:59:47;8.25;;;4.70;;
44116;SDS011;29781;49.480;8.512;2022-10-17T07:02:13;11.30;;;5.15;;
44116;SDS011;29781;49.480;8.512;2022-10-17T07:04:38;8.23;;;4.72;;
44116;SDS011;29781;49.480;8.512;2022-10-17T07:07:04;6.15;;;3.90;;
44116;SDS011;29781;49.480;8.512;2022-10-17T07:09:30;12.93;;;5.10;;
44116;SDS011;29781;49.480;8.512;2022-10-17T07:11:56;6.95;;;3.40;;
44116;SDS011;29781;49.480;8.512;2022-10-17T07:14:23;13.07;;;4.78;;
44116;SDS011;29781;49.480;8.512;2022-10-17T07:16:55;7.28;;;3.72;;
44116;SDS011;29781;49.480;8.512;2022-10-17T07:19:24;8.63;;;4.57;;
44116;SDS011;29781;49.480;8.512;2022-10-17T07:21:51;11.18;;;3.80;;
44116;SDS011;29781;49.480;8.512;2022-10-17T07:24:17;10.13;;;4.05;;
44116;SDS011;29781;49.480;8.512;2022-10-17T07:26:42;4.97;;;3.83;;
44116;SDS011;29781;49.480;8.512;2022-10-17T07:29:08;12.57;;;3.92;;
44116;SDS011;29781;49.480;8.512;2022-10-17T07:31:34;4.57;;;3.75;;
44116;SDS011;29781;49.480;8.512;2022-10-17T07:34:00;5.40;;;3.47;;
44116;SDS011;29781;49.480;8.512;2022-10-17T07:36:26;5.88;;;3.58;;
44116;SDS011;29781;49.480;8.512;2022-10-17T07:38:51;6.25;;;3.67;;
44116;SDS011;29781;49.480;8.512;2022-10-17T07:41:17;9.77;;;3.88;;
44116;SDS011;29781;49.480;8.512;2022-10-17T07:43:46;8.40;;;4.10;;
44116;SDS011;29781;49.480;8.512;2022-10-17T07:46:11;8.23;;;3.60;;
44116;SDS011;29781;49.480;8.512;2022-10-17T07:48:37;5.68;;;3.53;;
44116;SDS011;29781;49.480;8.512;2022-10-17T07:51:05;6.40;;;3.88;;
44116;SDS011;29781;49.480;8.512;2022-10-17T07:53:33;6.32;;;3.58;;
44116;SDS011;29781;49.480;8.512;2022-10-17T07:56:05;7.45;;;3.38;;
44116;SDS011;29781;49.480;8.512;2022-10-17T07:58:32;4.63;;;3.08;;
44116;SDS011;29781;49.480;8.512;2022-10-17T08:01:02;10.13;;;3.63;;
44116;SDS011;29781;49.480;8.512;2022-10-17T08:03:30;3.55;;;3.20;;
44116;SDS011;29781;49.480;8.512;2022-10-17T08:05:56;5.30;;;3.05;;
44116;SDS011;29781;49.480;8.512;2022-10-17T08:08:22;7.35;;;3.20;;
44116;SDS011;29781;49.480;8.512;2022-10-17T08:10:48;4.55;;;3.00;;
44116;SDS011;29781;49.480;8.512;2022-10-17T08:13:14;7.85;;;3.10;;
44116;SDS011;29781;49.480;8.512;2022-10-17T08:15:39;8.07;;;3.13;;
44116;SDS011;29781;49.480;8.512;2022-10-17T08:18:05;7.35;;;2.72;;
44116;SDS011;29781;49.480;8.512;2022-10-17T08:20:31;6.28;;;3.15;;
44116;SDS011;29781;49.480;8.512;2022-10-17T08:22:56;7.78;;;3.10;;
44116;SDS011;29781;49.480;8.512;2022-10-17T08:25:22;7.15;;;3.35;;
44116;SDS011;29781;49.480;8.512;2022-10-17T08:27:48;8.77;;;3.33;;
44116;SDS011;29781;49.480;8.512;2022-10-17T08:30:14;7.53;;;3.45;;
44116;SDS011;29781;49.480;8.512;2022-10-17T08:32:41;8.00;;;3.15;;
44116;SDS011;29781;49.480;8.512;2022-10-17T08:35:06;8.35;;;3.00;;
44116;SDS011;29781;49.480;8.512;2022-10-17T08:37:32;14.10;;;3.33;;
44116;SDS011;29781;49.480;8.512;2022-10-17T08:39:58;8.77;;;3.25;;
44116;SDS011;29781;49.480;8.512;2022-10-17T08:48:14;13.77;;;4.43;;
44116;SDS011;29781;49.480;8.512;2022-10-17T08:50:42;10.05;;;4.85;;
44116;SDS011;29781;49.480;8.512;2022-10-17T08:55:53;8.00;;;4.20;;
44116;SDS011;29781;49.480;8.512;2022-10-17T08:58:20;5.65;;;3.30;;
44116;SDS011;29781;49.480;8.512;2022-10-17T09:03:31;4.55;;;3.47;;
44116;SDS011;29781;49.480;8.512;2022-10-17T09:11:45;5.28;;;3.40;;
44116;SDS011;29781;49.480;8.512;2022-10-17T09:17:50;6.07;;;2.95;;
44116;SDS011;29781;49.480;8.512;2022-10-17T09:25:23;6.90;;;2.95;;
44116;SDS011;29781;49.480;8.512;2022-10-17T09:27:53;6.45;;;2.97;;
44116;SDS011;29781;49.480;8.512;2022-10-17T09:30:45;4.45;;;3.03;;
44116;SDS011;29781;49.480;8.512;2022-10-17T09:33:19;3.92;;;3.22;;
44116;SDS011;29781;49.480;8.512;2022-10-17T09:35:48;4.65;;;2.92;;
44116;SDS011;29781;49.480;8.512;2022-10-17T09:38:17;6.60;;;3.17;;
44116;SDS011;29781;49.480;8.512;2022-10-17T09:40:44;6.05;;;3.33;;
44116;SDS011;29781;49.480;8.512;2022-10-17T09:43:19;3.05;;;2.55;;
44116;SDS011;29781;49.480;8.512;2022-10-17T09:46:07;4.68;;;3.15;;
44116;SDS011;29781;49.480;8.512;2022-10-17T09:49:05;15.85;;;3.08;;
44116;SDS011;29781;49.480;8.512;2022-10-17T09:51:36;6.78;;;3.70;;
44116;SDS011;29781;49.480;8.512;2022-10-17T09:54:03;10.57;;;3.78;;
44116;SDS011;29781;49.480;8.512;2022-10-17T09:57:00;4.70;;;3.13;;
44116;SDS011;29781;49.480;8.512;2022-10-17T09:59:35;8.55;;;3.03;;
44116;SDS011;29781;49.480;8.512;2022-10-17T10:07:22;5.22;;;3.13;;
44116;SDS011;29781;49.480;8.512;2022-10-17T10:09:50;10.13;;;3.60;;
44116;SDS011;29781;49.480;8.512;2022-10-17T10:12:17;11.95;;;3.60;;
44116;SDS011;29781;49.480;8.512;2022-10-17T10:14:48;5.13;;;3.53;;
44116;SDS011;29781;49.480;8.512;2022-10-17T10:20:00;6.07;;;3.38;;
44116;SDS011;29781;49.480;8.512;2022-10-17T10:22:26;4.82;;;2.95;;
44116;SDS011;29781;49.480;8.512;2022-10-17T10:27:39;12.90;;;4.18;;
44116;SDS011;29781;49.480;8.512;2022-10-17T10:30:15;7.18;;;3.17;;
44116;SDS011;29781;49.480;8.512;2022-10-17T10:32:44;7.88;;;3.25;;
44116;SDS011;29781;49.480;8.512;2022-10-17T10:35:23;6.43;;;3.10;;
44116;SDS011;29781;49.480;8.512;2022-10-17T10:37:56;8.55;;;3.50;;
44116;SDS011;29781;49.480;8.512;2022-10-17T10:40:27;9.30;;;3.63;;
44116;SDS011;29781;49.480;8.512;2022-10-17T10:43:01;7.30;;;3.17;;
44116;SDS011;29781;49.480;8.512;2022-10-17T10:45:38;11.95;;;3.25;;
44116;SDS011;29781;49.480;8.512;2022-10-17T10:48:20;10.23;;;3.45;;
44116;SDS011;29781;49.480;8.512;2022-10-17T10:50:56;7.82;;;3.03;;
44116;SDS011;29781;49.480;8.512;2022-10-17T11:01:45;7.43;;;3.60;;
44116;SDS011;29781;49.480;8.512;2022-10-17T11:06:53;8.60;;;3.13;;
44116;SDS011;29781;49.480;8.512;2022-10-17T11:09:31;9.02;;;3.33;;
44116;SDS011;29781;49.480;8.512;2022-10-17T11:12:17;5.13;;;3.15;;
44116;SDS011;29781;49.480;8.512;2022-10-17T11:15:20;8.82;;;2.80;;
44116;SDS011;29781;49.480;8.512;2022-10-17T11:17:56;4.97;;;2.95;;
44116;SDS011;29781;49.480;8.512;2022-10-17T11:23:21;6.22;;;2.90;;
44116;SDS011;29781;49.480;8.512;2022-10-17T11:25:51;4.50;;;3.10;;
44116;SDS011;29781;49.480;8.512;2022-10-17T11:28:19;4.45;;;3.40;;
44116;SDS011;29781;49.480;8.512;2022-10-17T11:33:33;7.75;;;3.70;;
44116;SDS011;29781;49.480;8.512;2022-10-17T11:36:24;12.85;;;3.45;;
44116;SDS011;29781;49.480;8.512;2022-10-17T11:39:02;11.68;;;3.47;;
44116;SDS011;29781;49.480;8.512;2022-10-17T11:52:42;6.32;;;3.08;;
44116;SDS011;29781;49.480;8.512;2022-10-17T11:55:18;7.53;;;3.55;;
44116;SDS011;29781;49.480;8.512;2022-10-17T12:00:33;5.18;;;2.72;;
44116;SDS011;29781;49.480;8.512;2022-10-17T12:08:24;7.35;;;3.45;;
44116;SDS011;29781;49.480;8.512;2022-10-17T12:11:17;3.45;;;2.60;;
44116;SDS011;29781;49.480;8.512;2022-10-17T12:17:03;5.07;;;3.13;;
44116;SDS011;29781;49.480;8.512;2022-10-17T12:19:50;4.78;;;2.75;;
44116;SDS011;29781;49.480;8.512;2022-10-17T12:22:22;6.30;;;3.40;;
44116;SDS011;29781;49.480;8.512;2022-10-17T12:25:02;5.28;;;2.80;;
44116;SDS011;29781;49.480;8.512;2022-10-17T12:32:36;4.70;;;2.70;;
44116;SDS011;29781;49.480;8.512;2022-10-17T12:35:02;3.70;;;2.53;;
44116;SDS011;29781;49.480;8.512;2022-10-17T12:51:02;8.10;;;2.90;;
44116;SDS011;29781;49.480;8.512;2022-10-17T12:53:35;5.82;;;3.10;;
44116;SDS011;29781;49.480;8.512;2022-10-17T12:56:13;5.82;;;2.80;;
44116;SDS011;29781;49.480;8.512;2022-10-17T12:58:59;5.70;;;2.80;;
44116;SDS011;29781;49.480;8.512;2022-10-17T13:01:30;3.88;;;2.70;;
44116;SDS011;29781;49.480;8.512;2022-10-17T13:03:58;5.60;;;2.50;;
44116;SDS011;29781;49.480;8.512;2022-10-17T13:06:31;10.02;;;2.63;;
44116;SDS011;29781;49.480;8.512;2022-10-17T13:09:14;6.28;;;2.85;;
44116;SDS011;29781;49.480;8.512;2022-10-17T13:11:57;4.90;;;2.80;;
44116;SDS011;29781;49.480;8.512;2022-10-17T13:14:26;8.65;;;2.80;;
44116;SDS011;29781;49.480;8.512;2022-10-17T13:19:28;9.15;;;2.95;;
44116;SDS011;29781;49.480;8.512;2022-10-17T13:21:58;5.90;;;2.90;;
44116;SDS011;29781;49.480;8.512;2022-10-17T13:24:35;4.38;;;2.75;;
44116;SDS011;29781;49.480;8.512;2022-10-17T13:27:04;10.40;;;3.13;;
44116;SDS011;29781;49.480;8.512;2022-10-17T13:29:45;2.95;;;2.70;;
44116;SDS011;29781;49.480;8.512;2022-10-17T13:32:11;8.73;;;3.00;;
44116;SDS011;29781;49.480;8.512;2022-10-17T13:34:36;3.67;;;2.85;;
44116;SDS011;29781;49.480;8.512;2022-10-17T13:37:03;5.00;;;2.80;;
44116;SDS011;29781;49.480;8.512;2022-10-17T13:39:34;6.20;;;2.88;;
44116;SDS011;29781;49.480;8.512;2022-10-17T13:42:03;5.97;;;2.63;;
44116;SDS011;29781;49.480;8.512;2022-10-17T13:44:33;6.55;;;2.92;;
44116;SDS011;29781;49.480;8.512;2022-10-17T13:46:59;6.47;;;3.22;;
44116;SDS011;29781;49.480;8.512;2022-10-17T13:49:31;8.40;;;3.00;;
44116;SDS011;29781;49.480;8.512;2022-10-17T13:52:02;5.22;;;2.85;;
44116;SDS011;29781;49.480;8.512;2022-10-17T13:56:58;12.50;;;3.03;;
44116;SDS011;29781;49.480;8.512;2022-10-17T13:59:33;8.85;;;3.22;;
44116;SDS011;29781;49.480;8.512;2022-10-17T14:02:03;9.38;;;3.08;;
44116;SDS011;29781;49.480;8.512;2022-10-17T14:04:29;3.85;;;3.05;;
44116;SDS011;29781;49.480;8.512;2022-10-17T14:06:55;3.83;;;2.90;;
44116;SDS011;29781;49.480;8.512;2022-10-17T14:12:06;9.45;;;3.80;;
44116;SDS011;29781;49.480;8.512;2022-10-17T14:14:37;14.82;;;3.95;;
44116;SDS011;29781;49.480;8.512;2022-10-17T14:17:13;8.52;;;3.20;;
44116;SDS011;29781;49.480;8.512;2022-10-17T14:19:49;6.93;;;2.95;;
44116;SDS011;29781;49.480;8.512;2022-10-17T14:24:47;4.85;;;3.20;;
44116;SDS011;29781;49.480;8.512;2022-10-17T14:30:00;8.20;;;3.00;;
44116;SDS011;29781;49.480;8.512;2022-10-17T14:32:55;8.57;;;3.53;;
44116;SDS011;29781;49.480;8.512;2022-10-17T14:35:22;8.60;;;3.45;;
44116;SDS011;29781;49.480;8.512;2022-10-17T14:37:49;5.20;;;3.17;;
44116;SDS011;29781;49.480;8.512;2022-10-17T14:40:18;10.80;;;3.28;;
44116;SDS011;29781;49.480;8.512;2022-10-17T14:42:47;10.25;;;3.40;;
44116;SDS011;29781;49.480;8.512;2022-10-17T14:45:18;6.13;;;3.00;;
44116;SDS011;29781;49.480;8.512;2022-10-17T14:48:20;8.23;;;3.22;;
44116;SDS011;29781;49.480;8.512;2022-10-17T14:53:42;7.90;;;3.22;;
44116;SDS011;29781;49.480;8.512;2022-10-17T14:56:24;4.57;;;3.30;;
44116;SDS011;29781;49.480;8.512;2022-10-17T14:58:51;5.50;;;3.33;;
44116;SDS011;29781;49.480;8.512;2022-10-17T15:01:17;10.52;;;3.28;;
44116;SDS011;29781;49.480;8.512;2022-10-17T15:03:43;7.75;;;3.15;;
44116;SDS011;29781;49.480;8.512;2022-10-17T15:06:19;10.60;;;2.97;;
44116;SDS011;29781;49.480;8.512;2022-10-17T15:08:47;5.50;;;3.35;;
44116;SDS011;29781;49.480;8.512;2022-10-17T15:11:13;12.02;;;3.13;;
44116;SDS011;29781;49.480;8.512;2022-10-17T15:13:38;5.97;;;3.03;;
44116;SDS011;29781;49.480;8.512;2022-10-17T15:18:59;7.32;;;3.20;;
44116;SDS011;29781;49.480;8.512;2022-10-17T15:21:26;4.13;;;3.05;;
44116;SDS011;29781;49.480;8.512;2022-10-17T15:23:52;8.15;;;2.92;;
44116;SDS011;29781;49.480;8.512;2022-10-17T15:26:28;7.10;;;2.95;;
44116;SDS011;29781;49.480;8.512;2022-10-17T15:28:56;5.97;;;3.13;;
44116;SDS011;29781;49.480;8.512;2022-10-17T15:31:22;10.57;;;3.10;;
44116;SDS011;29781;49.480;8.512;2022-10-17T15:33:49;10.60;;;3.28;;
44116;SDS011;29781;49.480;8.512;2022-10-17T15:36:28;7.82;;;3.47;;
44116;SDS011;29781;49.480;8.512;2022-10-17T15:38:59;5.95;;;3.25;;
44116;SDS011;29781;49.480;8.512;2022-10-17T15:41:26;5.15;;;3.50;;
44116;SDS011;29781;49.480;8.512;2022-10-17T15:43:53;7.93;;;3.50;;
44116;SDS011;29781;49.480;8.512;2022-10-17T15:46:20;7.80;;;3.58;;
44116;SDS011;29781;49.480;8.512;2022-10-17T15:48:49;5.43;;;3.67;;
44116;SDS011;29781;49.480;8.512;2022-10-17T15:51:15;4.32;;;3.70;;
44116;SDS011;29781;49.480;8.512;2022-10-17T15:53:41;5.05;;;3.65;;
44116;SDS011;29781;49.480;8.512;2022-10-17T15:56:07;3.58;;;2.92;;
44116;SDS011;29781;49.480;8.512;2022-10-17T15:58:44;6.30;;;3.38;;
44116;SDS011;29781;49.480;8.512;2022-10-17T16:01:14;11.35;;;3.55;;
44116;SDS011;29781;49.480;8.512;2022-10-17T16:03:44;4.55;;;3.20;;
44116;SDS011;29781;49.480;8.512;2022-10-17T16:06:11;4.43;;;3.30;;
44116;SDS011;29781;49.480;8.512;2022-10-17T16:08:37;5.22;;;3.88;;
44116;SDS011;29781;49.480;8.512;2022-10-17T16:11:02;6.53;;;3.35;;
44116;SDS011;29781;49.480;8.512;2022-10-17T16:13:28;8.90;;;3.85;;
44116;SDS011;29781;49.480;8.512;2022-10-17T16:15:54;8.13;;;4.20;;
44116;SDS011;29781;49.480;8.512;2022-10-17T16:18:19;12.63;;;4.60;;
44116;SDS011;29781;49.480;8.512;2022-10-17T16:20:45;7.93;;;3.50;;
44116;SDS011;29781;49.480;8.512;2022-10-17T16:23:11;7.05;;;4.10;;
44116;SDS011;29781;49.480;8.512;2022-10-17T16:25:38;8.43;;;4.28;;
44116;SDS011;29781;49.480;8.512;2022-10-17T16:28:04;6.78;;;4.03;;
44116;SDS011;29781;49.480;8.512;2022-10-17T16:30:32;8.38;;;3.90;;
44116;SDS011;29781;49.480;8.512;2022-10-17T16:33:01;5.85;;;4.32;;
44116;SDS011;29781;49.480;8.512;2022-10-17T16:35:28;8.07;;;4.20;;
44116;SDS011;29781;49.480;8.512;2022-10-17T16:37:54;6.65;;;4.15;;
44116;SDS011;29781;49.480;8.512;2022-10-17T16:40:21;12.45;;;3.75;;
44116;SDS011;29781;49.480;8.512;2022-10-17T16:42:47;12.82;;;4.70;;
44116;SDS011;29781;49.480;8.512;2022-10-17T16:45:14;8.30;;;4.20;;
44116;SDS011;29781;49.480;8.512;2022-10-17T16:47:42;5.60;;;3.58;;
44116;SDS011;29781;49.480;8.512;2022-10-17T16:50:07;9.70;;;4.35;;
44116;SDS011;29781;49.480;8.512;2022-10-17T16:52:34;7.15;;;3.83;;
44116;SDS011;29781;49.480;8.512;2022-10-17T16:54:59;6.18;;;4.07;;
44116;SDS011;29781;49.480;8.512;2022-10-17T16:57:25;7.13;;;3.70;;
44116;SDS011;29781;49.480;8.512;2022-10-17T16:59:50;7.22;;;4.60;;
44116;SDS011;29781;49.480;8.512;2022-10-17T17:02:16;10.60;;;4.05;;
44116;SDS011;29781;49.480;8.512;2022-10-17T17:04:42;8.10;;;4.13;;
44116;SDS011;29781;49.480;8.512;2022-10-17T17:07:08;7.43;;;3.92;;
44116;SDS011;29781;49.480;8.512;2022-10-17T17:09:33;6.63;;;3.95;;
44116;SDS011;29781;49.480;8.512;2022-10-17T17:11:59;8.25;;;4.60;;
44116;SDS011;29781;49.480;8.512;2022-10-17T17:14:25;6.00;;;3.97;;
44116;SDS011;29781;49.480;8.512;2022-10-17T17:16:51;6.75;;;4.35;;